Birch 4 — VREG7 — position and weather

sailwx.info

Track history (hours):
 
Tides and Currents Weather Stations Pressure Air Temp Water Temp Dewpoint Dewpoint Depression Visibility Wind Speed Wind Dir Waves Ship Positions

Birch 4

Last reported at 2014-Sep-03 08:25 UTC. Time now 2014-Oct-02 08:26 UTC.
Position N 01°11' E 103°50'.
Warning: this ship's position is 29 days out of date.

Length 160 m; draft 9.8 m.

Type: Ship. MMSI: 477111100.

Date/timePositionNaut miles runAvg speedWind from/ knotsBaromVisibWave heightAir tempDewpointWater temp
2014-Sep-03 08:25N 01°11' E 103°50'5 5.8
2014-Sep-03 07:34N 01°15' E 103°53'0 0.1
2014-Sep-03 06:31N 01°15' E 103°53'0 0.0
2014-Sep-03 05:31N 01°15' E 103°53'0 0.0
2014-Sep-03 04:31N 01°15' E 103°53'0 0.0
2014-Sep-03 03:31N 01°15' E 103°53'0 0.0
2014-Sep-03 02:31N 01°15' E 103°53'0 0.0
2014-Sep-03 01:31N 01°15' E 103°53'0 0.0
2014-Sep-03 00:31N 01°15' E 103°53'0 0.0
2014-Sep-02 23:31N 01°15' E 103°53'0 0.0
2014-Sep-02 22:31N 01°15' E 103°53'0 0.0
2014-Sep-02 21:31N 01°15' E 103°53'0 0.0
2014-Sep-02 20:31N 01°15' E 103°53'0 0.1
2014-Sep-02 19:31N 01°15' E 103°53'0 0.0
2014-Sep-02 18:31N 01°15' E 103°53'0 0.1
2014-Sep-02 17:33N 01°15' E 103°53'2 1.6
2014-Sep-02 16:33N 01°14' E 103°54'6 6.0
2014-Sep-02 15:33N 01°15' E 103°59'  
2014-Aug-27 13:11N 23°48' E 118°38'20 9.6
2014-Aug-27 11:03N 24°02' E 118°55'2110.7
2014-Aug-27 09:04N 24°16' E 119°12'40411.0
2014-Aug-25 20:29N 29°44' E 123°37'1311.5
2014-Aug-25 19:23N 29°56' E 123°39'6210.3
2014-Aug-25 13:23N 30°55' E 123°17'5110.0
2014-Aug-25 08:16N 31°06' E 122°19'2712.3
2014-Aug-25 06:05N 31°17' E 121°50'611.1
2014-Aug-25 05:33N 31°19' E 121°43'9 9.2
2014-Aug-25 04:33N 31°23' E 121°34'4 3.6
2014-Aug-25 03:31N 31°22' E 121°30'0 0.0
2014-Aug-25 02:25N 31°22' E 121°30'0 0.0
2014-Aug-25 01:26N 31°22' E 121°30'0 0.0
2014-Aug-25 00:25N 31°22' E 121°30'0 0.0
2014-Aug-24 23:31N 31°22' E 121°30'0 0.0
2014-Aug-24 22:31N 31°22' E 121°30'0 0.0
2014-Aug-24 21:32N 31°22' E 121°30'0 0.0
2014-Aug-24 20:32N 31°22' E 121°30'0 0.0
2014-Aug-24 19:26N 31°22' E 121°30'0 0.0
2014-Aug-24 18:25N 31°22' E 121°30'0 0.0
2014-Aug-24 17:32N 31°22' E 121°30'0 0.0
2014-Aug-24 16:32N 31°22' E 121°30'0 0.0
2014-Aug-24 15:32N 31°22' E 121°30'0 0.0
2014-Aug-24 14:20N 31°22' E 121°30'0 0.0
2014-Aug-24 13:31N 31°22' E 121°30'0 0.0
2014-Aug-24 12:13N 31°22' E 121°30'0 0.0
2014-Aug-24 11:32N 31°22' E 121°30'0 0.0
2014-Aug-24 10:31N 31°22' E 121°30'0 0.0
2014-Aug-24 09:26N 31°22' E 121°30'0 0.0
2014-Aug-24 08:32N 31°22' E 121°30'  
Track history (hours):
 
Tides and Currents Weather Stations Pressure Air Temp Water Temp Dewpoint Dewpoint Depression Visibility Wind Speed Wind Dir Waves Ship Positions

Birch 4

Last reported at 2014-Sep-03 08:25 UTC. Time now 2014-Oct-02 08:26 UTC.
Position N 01°11' E 103°50'.
Warning: this ship's position is 29 days out of date.

Length 160 m; draft 9.8 m.

Type: Ship. MMSI: 477111100.

Date/timePositionNaut miles runAvg speedWind from/ knotsBaromVisibWave heightAir tempDewpointWater temp
2014-Sep-03 08:25N 01°11' E 103°50'5 5.8
2014-Sep-03 07:34N 01°15' E 103°53'0 0.1
2014-Sep-03 06:31N 01°15' E 103°53'0 0.0
2014-Sep-03 05:31N 01°15' E 103°53'0 0.0
2014-Sep-03 04:31N 01°15' E 103°53'0 0.0
2014-Sep-03 03:31N 01°15' E 103°53'0 0.0
2014-Sep-03 02:31N 01°15' E 103°53'0 0.0
2014-Sep-03 01:31N 01°15' E 103°53'0 0.0
2014-Sep-03 00:31N 01°15' E 103°53'0 0.0
2014-Sep-02 23:31N 01°15' E 103°53'0 0.0
2014-Sep-02 22:31N 01°15' E 103°53'0 0.0
2014-Sep-02 21:31N 01°15' E 103°53'0 0.0
2014-Sep-02 20:31N 01°15' E 103°53'0 0.1
2014-Sep-02 19:31N 01°15' E 103°53'0 0.0
2014-Sep-02 18:31N 01°15' E 103°53'0 0.1
2014-Sep-02 17:33N 01°15' E 103°53'2 1.6
2014-Sep-02 16:33N 01°14' E 103°54'6 6.0
2014-Sep-02 15:33N 01°15' E 103°59'  
2014-Aug-27 13:11N 23°48' E 118°38'20 9.6
2014-Aug-27 11:03N 24°02' E 118°55'2110.7
2014-Aug-27 09:04N 24°16' E 119°12'40411.0
2014-Aug-25 20:29N 29°44' E 123°37'1311.5
2014-Aug-25 19:23N 29°56' E 123°39'6210.3
2014-Aug-25 13:23N 30°55' E 123°17'5110.0
2014-Aug-25 08:16N 31°06' E 122°19'2712.3
2014-Aug-25 06:05N 31°17' E 121°50'611.1
2014-Aug-25 05:33N 31°19' E 121°43'9 9.2
2014-Aug-25 04:33N 31°23' E 121°34'4 3.6
2014-Aug-25 03:31N 31°22' E 121°30'0 0.0
2014-Aug-25 02:25N 31°22' E 121°30'0 0.0
2014-Aug-25 01:26N 31°22' E 121°30'0 0.0
2014-Aug-25 00:25N 31°22' E 121°30'0 0.0
2014-Aug-24 23:31N 31°22' E 121°30'0 0.0
2014-Aug-24 22:31N 31°22' E 121°30'0 0.0
2014-Aug-24 21:32N 31°22' E 121°30'0 0.0
2014-Aug-24 20:32N 31°22' E 121°30'0 0.0
2014-Aug-24 19:26N 31°22' E 121°30'0 0.0
2014-Aug-24 18:25N 31°22' E 121°30'0 0.0
2014-Aug-24 17:32N 31°22' E 121°30'0 0.0
2014-Aug-24 16:32N 31°22' E 121°30'0 0.0
2014-Aug-24 15:32N 31°22' E 121°30'0 0.0
2014-Aug-24 14:20N 31°22' E 121°30'0 0.0
2014-Aug-24 13:31N 31°22' E 121°30'0 0.0
2014-Aug-24 12:13N 31°22' E 121°30'0 0.0
2014-Aug-24 11:32N 31°22' E 121°30'0 0.0
2014-Aug-24 10:31N 31°22' E 121°30'0 0.0
2014-Aug-24 09:26N 31°22' E 121°30'0 0.0
2014-Aug-24 08:32N 31°22' E 121°30'  

Dump ship's entire track history